createdAt,value
2023-10-31T00:01:06.363Z,14.33
2023-10-31T00:03:36.408Z,14.19
2023-10-31T00:06:09.398Z,13.92
2023-10-31T00:08:39.252Z,13.95
2023-10-31T00:11:09.402Z,13.88
2023-10-31T00:13:39.303Z,13.87
2023-10-31T00:16:10.114Z,13.84
2023-10-31T00:18:40.007Z,13.83
2023-10-31T00:21:12.448Z,13.81
2023-10-31T00:23:47.616Z,13.73
2023-10-31T00:26:17.917Z,13.74
2023-10-31T00:28:47.847Z,13.73
2023-10-31T00:31:17.762Z,13.78
2023-10-31T00:33:47.686Z,13.83
2023-10-31T00:36:20.443Z,13.91
2023-10-31T00:38:50.524Z,13.93
2023-10-31T00:41:20.517Z,14.00
2023-10-31T00:43:50.354Z,14.01
2023-10-31T00:46:20.816Z,14.02
2023-10-31T00:48:50.810Z,13.99
2023-10-31T00:51:23.504Z,13.96
2023-10-31T00:53:53.366Z,13.83
2023-10-31T00:56:23.204Z,13.85
2023-10-31T00:58:53.097Z,13.75
2023-10-31T01:01:22.931Z,13.74
2023-10-31T01:03:55.857Z,13.74
2023-10-31T01:06:28.382Z,13.71
2023-10-31T01:08:58.309Z,13.67
2023-10-31T01:11:28.307Z,13.66
2023-10-31T01:13:58.354Z,13.58
2023-10-31T01:16:28.227Z,13.49
2023-10-31T01:18:58.134Z,13.45
2023-10-31T01:21:30.647Z,13.45
2023-10-31T01:24:00.589Z,13.47
2023-10-31T01:26:30.537Z,13.48
2023-10-31T01:29:00.486Z,13.44
2023-10-31T01:31:30.812Z,13.29
2023-10-31T01:34:01.065Z,13.27
2023-10-31T01:36:33.671Z,13.25
2023-10-31T01:39:03.541Z,13.19
2023-10-31T01:41:34.429Z,13.20
2023-10-31T01:44:04.353Z,13.19
2023-10-31T01:46:34.260Z,13.20
2023-10-31T01:49:04.397Z,13.25
2023-10-31T01:51:37.054Z,13.26
2023-10-31T01:54:07.784Z,13.27
2023-10-31T01:56:37.799Z,13.17
2023-10-31T01:59:09.621Z,13.18
2023-10-31T02:01:42.454Z,13.17
2023-10-31T02:04:12.336Z,13.18
2023-10-31T02:06:46.982Z,13.17
2023-10-31T02:09:16.905Z,13.12
2023-10-31T02:11:46.883Z,13.12
2023-10-31T02:14:16.764Z,13.12
2023-10-31T02:16:46.679Z,13.06
2023-10-31T02:19:20.428Z,13.08
2023-10-31T02:21:55.409Z,13.07
2023-10-31T02:24:25.226Z,13.03
2023-10-31T02:26:55.148Z,13.02
2023-10-31T02:29:25.079Z,12.99
2023-10-31T02:31:55.873Z,13.02
2023-10-31T02:34:27.550Z,13.02
2023-10-31T02:37:00.053Z,12.98
2023-10-31T02:39:30.070Z,12.99
2023-10-31T02:41:59.960Z,12.94
2023-10-31T02:44:29.865Z,12.88
2023-10-31T02:46:59.946Z,12.87
2023-10-31T02:49:29.805Z,12.88
2023-10-31T02:52:02.300Z,12.82
2023-10-31T02:54:32.244Z,12.84
2023-10-31T02:57:02.515Z,12.78
2023-10-31T02:59:32.400Z,12.85
2023-10-31T03:02:02.561Z,12.83
2023-10-31T03:04:32.425Z,12.86
2023-10-31T03:07:04.958Z,12.85
2023-10-31T03:09:34.773Z,12.87
2023-10-31T03:12:04.598Z,12.89
2023-10-31T03:14:34.890Z,12.91
2023-10-31T03:17:04.784Z,12.93
2023-10-31T03:19:34.746Z,12.91
2023-10-31T03:22:07.535Z,12.84
2023-10-31T03:24:37.538Z,12.84
2023-10-31T03:27:07.428Z,12.81
2023-10-31T03:29:37.333Z,12.80
2023-10-31T03:32:08.267Z,12.77
2023-10-31T03:34:38.749Z,12.81
2023-10-31T03:37:11.492Z,12.80
2023-10-31T03:39:41.369Z,12.78
2023-10-31T03:42:11.392Z,12.82
2023-10-31T03:44:41.310Z,12.81
2023-10-31T03:47:11.293Z,12.85
2023-10-31T03:49:42.050Z,12.90
2023-10-31T03:52:14.539Z,12.89
2023-10-31T03:54:44.378Z,12.89
2023-10-31T03:57:14.266Z,12.92
2023-10-31T03:59:44.137Z,12.94
2023-10-31T04:02:14.014Z,12.93
2023-10-31T04:04:43.951Z,12.98
2023-10-31T04:07:16.416Z,12.95
2023-10-31T04:09:46.318Z,12.88
2023-10-31T04:12:16.522Z,12.83
2023-10-31T04:14:46.395Z,12.86
2023-10-31T04:17:16.403Z,12.88
2023-10-31T04:19:46.292Z,12.90
2023-10-31T04:22:18.828Z,12.87
2023-10-31T04:24:48.650Z,12.84
2023-10-31T04:27:18.518Z,12.82
2023-10-31T04:29:50.513Z,12.79
2023-10-31T04:32:20.448Z,12.78
2023-10-31T04:34:50.359Z,12.74
2023-10-31T04:37:22.871Z,12.78
2023-10-31T04:39:52.737Z,12.78
2023-10-31T04:42:24.016Z,12.79
2023-10-31T04:44:53.877Z,12.74
2023-10-31T04:47:24.115Z,12.75
2023-10-31T04:49:55.500Z,12.76
2023-10-31T04:52:27.980Z,12.74
2023-10-31T04:54:58.031Z,12.73
2023-10-31T04:57:28.047Z,12.75
2023-10-31T04:59:59.719Z,12.76
2023-10-31T05:02:30.041Z,12.78
2023-10-31T05:05:00.179Z,12.77
2023-10-31T05:07:34.768Z,12.78
2023-10-31T05:10:04.749Z,12.75
2023-10-31T05:12:34.588Z,12.75
2023-10-31T05:15:04.455Z,12.72
2023-10-31T05:17:34.362Z,12.74
2023-10-31T05:20:04.537Z,12.74
2023-10-31T05:22:37.199Z,12.68
2023-10-31T05:25:07.761Z,12.76
2023-10-31T05:27:37.642Z,12.74
2023-10-31T05:30:08.605Z,12.77
2023-10-31T05:32:38.489Z,12.78
2023-10-31T05:35:10.317Z,12.78
2023-10-31T05:37:42.885Z,12.76
2023-10-31T05:40:14.519Z,12.73
2023-10-31T05:42:44.514Z,12.71
2023-10-31T05:45:14.555Z,12.72
2023-10-31T05:47:44.380Z,12.74
2023-10-31T05:50:14.443Z,12.76
2023-10-31T05:52:47.092Z,12.75
2023-10-31T05:55:17.365Z,12.76
2023-10-31T05:57:47.354Z,12.74
2023-10-31T06:00:18.059Z,12.73
2023-10-31T06:02:47.956Z,12.73
2023-10-31T06:05:18.067Z,12.72
2023-10-31T06:07:50.620Z,12.74
2023-10-31T06:10:22.807Z,12.74
2023-10-31T06:12:52.786Z,12.73
2023-10-31T06:15:22.742Z,12.75
2023-10-31T06:17:52.802Z,12.73
2023-10-31T06:20:23.618Z,12.73
2023-10-31T06:22:58.744Z,12.74
2023-10-31T06:25:28.702Z,12.79
2023-10-31T06:27:58.586Z,12.81
2023-10-31T06:30:29.341Z,12.84
2023-10-31T06:32:59.749Z,12.80
2023-10-31T06:35:29.673Z,12.79
2023-10-31T06:38:02.588Z,12.83
2023-10-31T06:40:34.298Z,12.86
2023-10-31T06:43:05.496Z,12.86
2023-10-31T06:45:35.378Z,12.82
2023-10-31T06:48:06.712Z,12.86
2023-10-31T06:50:36.595Z,12.90
2023-10-31T06:53:09.103Z,12.91
2023-10-31T06:55:38.988Z,12.93
2023-10-31T06:58:08.853Z,13.01
2023-10-31T07:00:38.889Z,13.01
2023-10-31T07:03:10.718Z,13.02
2023-10-31T07:05:41.657Z,13.03
2023-10-31T07:08:14.316Z,13.04
2023-10-31T07:10:44.284Z,13.09
2023-10-31T07:13:16.283Z,13.11
2023-10-31T07:15:47.962Z,13.09
2023-10-31T07:18:17.897Z,13.03
2023-10-31T07:20:47.774Z,12.97
2023-10-31T07:23:20.314Z,12.95
2023-10-31T07:25:50.317Z,12.92
2023-10-31T07:28:20.600Z,12.91
2023-10-31T07:30:51.714Z,12.92
2023-10-31T07:33:21.661Z,12.90
2023-10-31T07:35:51.593Z,12.87
2023-10-31T07:38:24.253Z,12.85
2023-10-31T07:40:54.284Z,12.83
2023-10-31T07:43:24.202Z,12.84
2023-10-31T07:45:54.209Z,12.83
2023-10-31T07:48:26.344Z,12.78
2023-10-31T07:50:56.231Z,12.79
2023-10-31T07:53:28.664Z,12.77
2023-10-31T07:55:58.532Z,12.78
2023-10-31T07:58:28.465Z,12.79
2023-10-31T08:00:58.403Z,12.80
2023-10-31T08:03:28.455Z,12.78
2023-10-31T08:05:58.450Z,12.81
2023-10-31T08:08:30.988Z,12.84
2023-10-31T08:11:03.572Z,12.86
2023-10-31T08:13:34.357Z,12.85
2023-10-31T08:16:04.241Z,12.85
2023-10-31T08:18:34.054Z,12.83
2023-10-31T08:21:03.973Z,12.87
2023-10-31T08:23:37.186Z,12.88
2023-10-31T08:26:07.705Z,12.91
2023-10-31T08:28:37.578Z,12.97
2023-10-31T08:31:07.989Z,12.94
2023-10-31T08:33:37.889Z,12.98
2023-10-31T08:36:09.035Z,12.99
2023-10-31T08:38:41.541Z,13.02
2023-10-31T08:41:11.567Z,13.11
2023-10-31T08:43:41.536Z,13.17
2023-10-31T08:46:11.651Z,13.20
2023-10-31T08:48:41.558Z,13.21
2023-10-31T08:51:11.515Z,13.18
2023-10-31T08:53:46.033Z,13.15
2023-10-31T08:56:16.024Z,13.18
2023-10-31T08:58:45.908Z,13.22
2023-10-31T09:01:16.098Z,13.26
2023-10-31T09:03:46.066Z,13.27
2023-10-31T09:06:16.094Z,13.27
2023-10-31T09:08:48.601Z,13.34
2023-10-31T09:11:18.477Z,13.34
2023-10-31T09:13:48.443Z,13.41
2023-10-31T09:16:18.391Z,13.45
2023-10-31T09:18:48.660Z,13.45
2023-10-31T09:21:18.754Z,13.52
2023-10-31T09:23:51.243Z,13.53
2023-10-31T09:26:21.453Z,13.57
2023-10-31T09:28:51.784Z,13.53
2023-10-31T09:31:22.035Z,13.59
2023-10-31T09:33:52.078Z,13.67
2023-10-31T09:36:23.916Z,13.71
2023-10-31T09:38:56.393Z,13.80
2023-10-31T09:41:26.237Z,13.90
2023-10-31T09:43:57.410Z,13.94
2023-10-31T09:46:27.438Z,13.93
2023-10-31T09:48:57.403Z,13.93
2023-10-31T09:51:27.482Z,14.00
2023-10-31T09:54:03.439Z,14.04
2023-10-31T09:56:35.994Z,14.01
2023-10-31T09:59:07.247Z,13.99
2023-10-31T10:01:39.294Z,13.96
2023-10-31T10:04:09.794Z,13.97
2023-10-31T10:06:44.861Z,13.95
2023-10-31T10:09:17.454Z,13.91
2023-10-31T10:11:47.357Z,13.88
2023-10-31T10:14:17.242Z,13.83
2023-10-31T10:16:47.233Z,13.79
2023-10-31T10:19:23.218Z,13.83
2023-10-31T10:21:54.232Z,13.88
2023-10-31T10:24:28.188Z,13.90
2023-10-31T10:26:58.014Z,13.88
2023-10-31T10:29:28.167Z,13.91
2023-10-31T10:31:58.534Z,13.95
2023-10-31T10:34:28.443Z,13.99
2023-10-31T10:36:59.616Z,14.03
2023-10-31T10:39:37.682Z,14.03
2023-10-31T10:42:13.555Z,14.01
2023-10-31T10:44:50.304Z,14.04
2023-10-31T10:47:22.457Z,14.08
2023-10-31T10:49:56.747Z,14.14
2023-10-31T10:52:33.290Z,14.18
2023-10-31T10:55:08.741Z,14.13
2023-10-31T10:57:43.680Z,14.20
2023-10-31T11:00:18.097Z,14.16
2023-10-31T11:02:49.981Z,14.16
2023-10-31T11:05:20.955Z,14.14
2023-10-31T11:07:52.689Z,14.17
2023-10-31T11:10:25.740Z,14.19
2023-10-31T11:12:56.378Z,14.16
2023-10-31T11:15:27.951Z,14.23
2023-10-31T11:17:59.976Z,14.30
2023-10-31T11:20:30.668Z,14.37
2023-10-31T11:23:06.080Z,14.46
2023-10-31T11:25:46.789Z,14.45
2023-10-31T11:28:19.141Z,14.53
2023-10-31T11:30:52.176Z,14.61
2023-10-31T11:33:24.643Z,14.67
2023-10-31T11:35:55.381Z,14.76
2023-10-31T11:38:36.696Z,14.86
2023-10-31T11:41:10.517Z,15.02
2023-10-31T11:44:01.562Z,15.01
2023-10-31T11:46:32.701Z,15.18
2023-10-31T11:49:03.400Z,15.25
2023-10-31T11:51:33.219Z,15.30
2023-10-31T11:54:08.789Z,15.34
2023-10-31T11:56:41.278Z,15.31
2023-10-31T11:59:11.382Z,15.30
2023-10-31T12:01:49.217Z,15.29
2023-10-31T12:04:28.147Z,15.32
2023-10-31T12:07:05.259Z,15.33
2023-10-31T12:09:36.261Z,15.41
2023-10-31T12:12:09.759Z,15.42
2023-10-31T12:14:41.262Z,15.46
2023-10-31T12:17:11.647Z,15.45
2023-10-31T12:19:41.640Z,15.45
2023-10-31T12:22:17.875Z,15.46
2023-10-31T12:24:47.932Z,15.51
2023-10-31T12:27:20.402Z,15.48
2023-10-31T12:29:50.284Z,15.51
2023-10-31T12:32:21.205Z,15.50
2023-10-31T12:34:51.274Z,15.47
2023-10-31T12:37:21.472Z,15.40
2023-10-31T12:39:52.254Z,15.39
2023-10-31T12:42:30.421Z,15.40
2023-10-31T12:45:00.557Z,15.40
2023-10-31T12:47:30.715Z,15.40
2023-10-31T12:50:11.701Z,15.30
2023-10-31T12:52:52.473Z,15.30
2023-10-31T12:55:24.214Z,15.36
2023-10-31T12:57:57.421Z,15.33
2023-10-31T13:00:35.000Z,15.23
2023-10-31T13:03:06.201Z,15.26
2023-10-31T13:05:37.588Z,15.22
2023-10-31T13:08:08.326Z,15.20
2023-10-31T13:10:38.216Z,15.21
2023-10-31T13:13:10.685Z,15.22
2023-10-31T13:15:40.542Z,15.23
2023-10-31T13:18:12.824Z,15.29
2023-10-31T13:20:42.877Z,15.28
2023-10-31T13:23:13.531Z,15.27
2023-10-31T13:25:43.671Z,15.29
2023-10-31T13:28:17.210Z,15.32
2023-10-31T13:30:48.456Z,15.42
2023-10-31T13:33:19.256Z,15.47
2023-10-31T13:35:49.168Z,15.52
2023-10-31T13:38:19.973Z,15.49
2023-10-31T13:40:50.345Z,15.59
2023-10-31T13:43:22.956Z,15.52
2023-10-31T13:45:52.779Z,15.58
2023-10-31T13:48:22.681Z,15.55
2023-10-31T13:50:52.610Z,15.52
2023-10-31T13:53:23.422Z,15.51
2023-10-31T13:55:53.340Z,15.47
2023-10-31T13:58:26.051Z,15.44
2023-10-31T14:00:55.960Z,15.46
2023-10-31T14:03:25.974Z,15.48
2023-10-31T14:05:56.855Z,15.47
2023-10-31T14:08:26.829Z,15.50
2023-10-31T14:10:58.175Z,15.50
2023-10-31T14:13:30.755Z,15.57
2023-10-31T14:16:00.728Z,15.59
2023-10-31T14:18:30.933Z,15.64
2023-10-31T14:21:00.939Z,15.64
2023-10-31T14:23:30.778Z,15.62
2023-10-31T14:26:00.713Z,15.63
2023-10-31T14:28:33.161Z,15.60
2023-10-31T14:31:03.208Z,15.59
2023-10-31T14:33:33.637Z,15.59
2023-10-31T14:36:03.926Z,15.62
2023-10-31T14:38:33.790Z,15.59
2023-10-31T14:41:05.384Z,15.56
2023-10-31T14:43:38.848Z,15.50
2023-10-31T14:46:09.534Z,15.51
2023-10-31T14:48:39.417Z,15.51
2023-10-31T14:51:09.696Z,15.48
2023-10-31T14:53:39.590Z,15.42
2023-10-31T14:56:10.485Z,15.42
2023-10-31T14:58:43.848Z,15.33
2023-10-31T15:01:14.716Z,15.30
2023-10-31T15:03:44.805Z,15.32
2023-10-31T15:06:16.418Z,15.31
2023-10-31T15:08:46.280Z,15.25
2023-10-31T15:11:17.075Z,15.20
2023-10-31T15:13:49.756Z,15.08
2023-10-31T15:16:19.923Z,15.08
2023-10-31T15:18:49.900Z,15.06
2023-10-31T15:21:19.880Z,15.04
2023-10-31T15:23:52.235Z,15.03
2023-10-31T15:26:26.346Z,14.99
2023-10-31T15:28:59.017Z,14.95
2023-10-31T15:31:28.926Z,14.95
2023-10-31T15:33:59.052Z,14.93
2023-10-31T15:36:28.920Z,14.94
2023-10-31T15:38:58.830Z,14.94
2023-10-31T15:41:28.714Z,14.93
2023-10-31T15:44:01.623Z,14.92
2023-10-31T15:46:32.898Z,14.89
2023-10-31T15:49:05.117Z,14.90
2023-10-31T15:51:35.547Z,14.90
2023-10-31T15:54:05.228Z,14.91
2023-10-31T15:56:36.083Z,14.91
2023-10-31T15:59:08.775Z,14.90
2023-10-31T16:01:38.922Z,14.90
2023-10-31T16:04:09.228Z,14.88
2023-10-31T16:06:39.250Z,14.85
2023-10-31T16:09:09.790Z,14.83
2023-10-31T16:11:40.940Z,14.81
2023-10-31T16:14:14.111Z,14.79
2023-10-31T16:16:45.616Z,14.76
2023-10-31T16:19:15.451Z,14.75
2023-10-31T16:21:45.351Z,14.64
2023-10-31T16:24:15.430Z,14.59
2023-10-31T16:26:45.467Z,14.55
2023-10-31T16:29:18.236Z,14.50
2023-10-31T16:31:49.340Z,14.45
2023-10-31T16:34:20.513Z,14.35
2023-10-31T16:36:50.447Z,14.27
2023-10-31T16:39:20.677Z,14.23
2023-10-31T16:41:50.592Z,14.20
2023-10-31T16:44:23.143Z,14.19
2023-10-31T16:46:53.257Z,14.17
2023-10-31T16:49:23.248Z,14.21
2023-10-31T16:51:55.747Z,14.25
2023-10-31T16:54:25.721Z,14.32
2023-10-31T16:56:55.839Z,14.37
2023-10-31T16:59:28.655Z,14.39
2023-10-31T17:01:58.559Z,14.36
2023-10-31T17:04:28.632Z,14.38
2023-10-31T17:06:58.549Z,14.39
2023-10-31T17:09:28.378Z,14.38
2023-10-31T17:11:58.408Z,14.32
2023-10-31T17:14:30.971Z,14.32
2023-10-31T17:17:03.809Z,14.36
2023-10-31T17:19:33.874Z,14.36
2023-10-31T17:22:04.318Z,14.36
2023-10-31T17:24:34.169Z,14.32
2023-10-31T17:27:04.196Z,14.31
2023-10-31T17:29:36.797Z,14.30
2023-10-31T17:32:13.854Z,14.25
2023-10-31T17:34:50.492Z,14.13
2023-10-31T17:37:20.458Z,14.10
2023-10-31T17:39:50.341Z,14.02
2023-10-31T17:42:20.804Z,14.01
2023-10-31T17:44:54.353Z,13.99
2023-10-31T17:47:24.365Z,14.01
2023-10-31T17:49:54.293Z,13.94
2023-10-31T17:52:26.776Z,13.91
2023-10-31T17:54:57.178Z,13.94
2023-10-31T17:57:27.405Z,13.94
2023-10-31T18:00:02.050Z,13.91
2023-10-31T18:02:32.068Z,13.92
2023-10-31T18:05:03.733Z,13.90
2023-10-31T18:07:33.661Z,13.90
2023-10-31T18:10:03.693Z,13.89
2023-10-31T18:12:33.553Z,13.88
2023-10-31T18:15:06.366Z,13.87
2023-10-31T18:17:36.336Z,13.84
2023-10-31T18:20:06.368Z,13.83
2023-10-31T18:22:36.920Z,13.84
2023-10-31T18:25:07.139Z,13.84
2023-10-31T18:27:37.167Z,13.80
2023-10-31T18:30:14.879Z,13.81
2023-10-31T18:32:45.331Z,13.80
2023-10-31T18:35:15.335Z,13.81
2023-10-31T18:37:45.170Z,13.81
2023-10-31T18:40:17.007Z,13.77
2023-10-31T18:42:46.842Z,13.75
2023-10-31T18:45:19.473Z,13.74
2023-10-31T18:47:49.474Z,13.73
2023-10-31T18:50:20.018Z,13.74
2023-10-31T18:52:50.036Z,13.68
2023-10-31T18:55:20.337Z,13.68
2023-10-31T18:57:50.264Z,13.66
2023-10-31T19:00:23.330Z,13.66
2023-10-31T19:02:53.369Z,13.59
2023-10-31T19:05:24.776Z,13.61
2023-10-31T19:07:54.693Z,13.56
2023-10-31T19:10:25.741Z,13.53
2023-10-31T19:12:56.797Z,13.54
2023-10-31T19:15:30.051Z,13.53
2023-10-31T19:18:00.060Z,13.55
2023-10-31T19:20:29.999Z,13.55
2023-10-31T19:23:01.783Z,13.55
2023-10-31T19:25:32.007Z,13.54
2023-10-31T19:28:02.214Z,13.55
2023-10-31T19:30:34.868Z,13.54
2023-10-31T19:33:04.763Z,13.51
2023-10-31T19:35:36.607Z,13.57
2023-10-31T19:38:06.605Z,13.61
2023-10-31T19:40:36.653Z,13.64
2023-10-31T19:43:06.530Z,13.69
2023-10-31T19:45:41.948Z,13.71
2023-10-31T19:48:12.681Z,13.69
2023-10-31T19:50:43.677Z,13.68
2023-10-31T19:53:13.697Z,13.65
2023-10-31T19:55:43.526Z,13.60
2023-10-31T19:58:13.857Z,13.60
2023-10-31T20:00:46.337Z,13.61
2023-10-31T20:03:16.603Z,13.66
2023-10-31T20:05:48.547Z,13.63
2023-10-31T20:08:18.683Z,13.64
2023-10-31T20:10:48.628Z,13.65
2023-10-31T20:13:18.622Z,13.65
2023-10-31T20:15:53.351Z,13.60
2023-10-31T20:18:23.408Z,13.53
2023-10-31T20:20:53.439Z,13.46
2023-10-31T20:23:23.624Z,13.48
2023-10-31T20:25:53.974Z,13.47
2023-10-31T20:28:24.032Z,13.46
2023-10-31T20:30:56.597Z,13.41
2023-10-31T20:33:26.509Z,13.41
2023-10-31T20:35:58.099Z,13.39
2023-10-31T20:38:28.073Z,13.33
2023-10-31T20:40:57.981Z,13.33
2023-10-31T20:43:27.964Z,13.32
2023-10-31T20:46:00.551Z,13.30
2023-10-31T20:48:30.681Z,13.34
2023-10-31T20:51:00.755Z,13.33
2023-10-31T20:53:32.548Z,13.32
2023-10-31T20:56:04.292Z,13.27
2023-10-31T20:58:34.149Z,13.28
2023-10-31T21:01:06.773Z,13.29
2023-10-31T21:03:36.766Z,13.27
2023-10-31T21:06:08.091Z,13.28
2023-10-31T21:08:38.037Z,13.26
2023-10-31T21:11:09.310Z,13.26
2023-10-31T21:13:39.536Z,13.28
2023-10-31T21:16:12.986Z,13.30
2023-10-31T21:18:42.858Z,13.31
2023-10-31T21:21:12.855Z,13.31
2023-10-31T21:23:42.778Z,13.29
2023-10-31T21:26:12.629Z,13.29
2023-10-31T21:28:42.959Z,13.27
2023-10-31T21:31:15.597Z,13.26
2023-10-31T21:33:45.840Z,13.24
2023-10-31T21:36:15.696Z,13.24
2023-10-31T21:38:45.676Z,13.24
2023-10-31T21:41:15.785Z,13.20
2023-10-31T21:43:45.672Z,13.22
2023-10-31T21:46:18.183Z,13.20
2023-10-31T21:48:48.617Z,13.19
2023-10-31T21:51:18.567Z,13.18
2023-10-31T21:53:48.376Z,13.18
2023-10-31T21:56:18.349Z,13.18
2023-10-31T21:58:48.231Z,13.19
2023-10-31T22:01:21.195Z,13.19
2023-10-31T22:03:51.332Z,13.19
2023-10-31T22:06:21.606Z,13.19
2023-10-31T22:08:51.558Z,13.19
2023-10-31T22:11:21.422Z,13.18
2023-10-31T22:13:51.317Z,13.21
2023-10-31T22:16:23.774Z,13.25
2023-10-31T22:18:53.696Z,13.29
2023-10-31T22:21:23.608Z,13.31
2023-10-31T22:23:53.592Z,13.30
2023-10-31T22:26:24.156Z,13.28
2023-10-31T22:28:56.777Z,13.30
2023-10-31T22:31:29.331Z,13.31
2023-10-31T22:33:59.180Z,13.31
2023-10-31T22:36:29.028Z,13.29
2023-10-31T22:38:58.930Z,13.27
2023-10-31T22:41:28.929Z,13.28
2023-10-31T22:43:58.863Z,13.30
2023-10-31T22:46:31.385Z,13.31
2023-10-31T22:49:01.255Z,13.35
2023-10-31T22:51:31.103Z,13.36
2023-10-31T22:54:00.988Z,13.38
2023-10-31T22:56:31.852Z,13.38
2023-10-31T22:59:01.722Z,13.43
2023-10-31T23:01:35.219Z,13.45
2023-10-31T23:04:06.252Z,13.42
2023-10-31T23:06:36.586Z,13.41
2023-10-31T23:09:11.809Z,13.39
2023-10-31T23:11:46.517Z,13.39
2023-10-31T23:14:16.735Z,13.40
2023-10-31T23:16:49.294Z,13.39
2023-10-31T23:19:19.235Z,13.38
2023-10-31T23:21:49.159Z,13.41
2023-10-31T23:24:19.231Z,13.39
2023-10-31T23:26:49.195Z,13.35
2023-10-31T23:29:19.068Z,13.33
2023-10-31T23:31:51.650Z,13.31
2023-10-31T23:34:21.565Z,13.32
2023-10-31T23:36:51.443Z,13.32
2023-10-31T23:39:21.590Z,13.31
2023-10-31T23:41:51.454Z,13.25
2023-10-31T23:44:21.365Z,13.26
2023-10-31T23:46:54.010Z,13.25
2023-10-31T23:49:23.927Z,13.28
2023-10-31T23:51:55.577Z,13.26
2023-10-31T23:54:25.536Z,13.26
2023-10-31T23:56:55.409Z,13.26
2023-10-31T23:59:25.271Z,13.26
